createdAt,value
2018-01-28T00:02:21.580Z,59.63
2018-01-28T00:04:48.280Z,55.97
2018-01-28T00:07:14.989Z,49.63
2018-01-28T00:09:41.712Z,53.17
2018-01-28T00:12:08.408Z,58.03
2018-01-28T00:14:35.203Z,57.30
2018-01-28T00:17:01.901Z,56.40
2018-01-28T00:19:28.656Z,55.67
2018-01-28T00:21:55.346Z,62.80
2018-01-28T00:24:22.116Z,59.20
2018-01-28T00:26:48.871Z,54.57
2018-01-28T00:29:15.621Z,59.13
2018-01-28T00:31:42.316Z,60.07
2018-01-28T00:34:09.022Z,62.07
2018-01-28T00:36:35.783Z,58.00
2018-01-28T00:39:02.496Z,63.70
2018-01-28T00:41:29.233Z,63.87
2018-01-28T00:43:55.946Z,56.13
2018-01-28T00:46:22.658Z,62.70
2018-01-28T00:48:49.365Z,56.50
2018-01-28T00:51:16.051Z,58.20
2018-01-28T00:53:42.812Z,61.83
2018-01-28T00:56:09.539Z,61.23
2018-01-28T00:58:36.274Z,61.73
2018-01-28T01:01:03.112Z,56.13
2018-01-28T01:03:29.855Z,63.70
2018-01-28T01:05:56.887Z,51.80
2018-01-28T01:08:23.713Z,57.30
2018-01-28T01:10:50.923Z,58.90
2018-01-28T01:13:18.618Z,55.80
2018-01-28T01:15:45.373Z,51.80
2018-01-28T01:18:12.136Z,56.07
2018-01-28T01:20:38.865Z,59.30
2018-01-28T01:23:05.613Z,52.60
2018-01-28T01:25:32.322Z,52.43
2018-01-28T01:27:59.023Z,50.13
2018-01-28T01:30:26.035Z,46.13
2018-01-28T01:32:52.742Z,54.23
2018-01-28T01:35:19.477Z,53.70
2018-01-28T01:37:46.206Z,51.90
2018-01-28T01:40:12.906Z,48.97
2018-01-28T01:42:39.648Z,55.73
2018-01-28T01:45:06.351Z,58.83
2018-01-28T01:47:33.082Z,52.07
2018-01-28T01:49:59.783Z,56.03
2018-01-28T01:52:26.511Z,53.97
2018-01-28T01:54:53.240Z,47.10
2018-01-28T01:57:20.010Z,48.50
2018-01-28T01:59:46.801Z,50.43
2018-01-28T02:02:14.202Z,48.67
2018-01-28T02:04:40.909Z,51.93
2018-01-28T02:07:07.745Z,50.20
2018-01-28T02:09:34.490Z,51.33
2018-01-28T02:12:01.180Z,52.67
2018-01-28T02:14:27.940Z,49.43
2018-01-28T02:16:54.657Z,43.00
2018-01-28T02:19:21.406Z,46.50
2018-01-28T02:21:48.156Z,46.57
2018-01-28T02:24:15.006Z,44.60
2018-01-28T02:26:41.692Z,46.80
2018-01-28T02:29:08.412Z,37.77
2018-01-28T02:31:35.156Z,44.30
2018-01-28T02:34:01.857Z,40.80
2018-01-28T02:36:28.558Z,42.40
2018-01-28T02:38:55.419Z,40.07
2018-01-28T02:41:22.146Z,38.03
2018-01-28T02:43:48.842Z,37.43
2018-01-28T02:46:15.558Z,33.80
2018-01-28T02:48:42.256Z,38.93
2018-01-28T02:51:09.052Z,35.90
2018-01-28T02:53:36.159Z,32.80
2018-01-28T02:56:02.850Z,31.30
2018-01-28T02:58:29.591Z,30.97
2018-01-28T03:00:56.274Z,32.00
2018-01-28T03:03:22.998Z,28.10
2018-01-28T03:05:49.699Z,27.30
2018-01-28T03:08:16.417Z,24.30
2018-01-28T03:10:43.587Z,25.93
2018-01-28T03:13:10.325Z,30.07
2018-01-28T03:15:37.039Z,23.63
2018-01-28T03:18:03.785Z,22.50
2018-01-28T03:20:30.890Z,24.40
2018-01-28T03:22:57.638Z,24.63
2018-01-28T03:25:24.341Z,25.40
2018-01-28T03:27:51.042Z,24.30
2018-01-28T03:30:17.763Z,25.17
2018-01-28T03:32:44.505Z,20.70
2018-01-28T03:35:11.197Z,19.20
2018-01-28T03:37:38.633Z,20.90
2018-01-28T03:40:05.324Z,20.27
2018-01-28T03:42:32.031Z,17.33
2018-01-28T03:44:58.784Z,18.90
2018-01-28T03:47:25.478Z,18.13
2018-01-28T03:49:52.197Z,16.50
2018-01-28T03:52:19.864Z,16.63
2018-01-28T03:54:46.563Z,16.10
2018-01-28T03:57:13.360Z,17.73
2018-01-28T03:59:40.125Z,18.13
2018-01-28T04:02:06.827Z,15.53
2018-01-28T04:04:33.518Z,13.23
2018-01-28T04:07:00.242Z,16.03
2018-01-28T04:09:27.303Z,15.60
2018-01-28T04:11:54.204Z,15.27
2018-01-28T04:14:20.902Z,14.67
2018-01-28T04:16:47.658Z,14.97
2018-01-28T04:19:14.374Z,13.40
2018-01-28T04:21:41.062Z,14.20
2018-01-28T04:24:07.829Z,13.07
2018-01-28T04:26:34.546Z,13.57
2018-01-28T04:29:01.286Z,16.00
2018-01-28T04:31:27.978Z,14.50
2018-01-28T04:33:54.658Z,13.80
2018-01-28T04:36:21.409Z,14.23
2018-01-28T04:38:48.140Z,11.47
2018-01-28T04:41:14.857Z,11.93
2018-01-28T04:43:41.563Z,11.83
2018-01-28T04:46:08.284Z,12.60
2018-01-28T04:48:35.159Z,14.40
2018-01-28T04:51:01.890Z,14.33
2018-01-28T04:53:28.603Z,14.17
2018-01-28T04:55:55.682Z,14.10
2018-01-28T04:58:22.513Z,11.97
2018-01-28T05:00:49.866Z,12.50
2018-01-28T05:03:16.638Z,13.53
2018-01-28T05:05:43.331Z,11.97
2018-01-28T05:08:10.076Z,13.00
2018-01-28T05:10:36.833Z,14.60
2018-01-28T05:13:03.587Z,14.50
2018-01-28T05:15:30.318Z,13.13
2018-01-28T05:17:57.048Z,12.83
2018-01-28T05:20:23.765Z,11.27
2018-01-28T05:22:50.914Z,13.10
2018-01-28T05:25:17.652Z,13.07
2018-01-28T05:27:44.394Z,12.80
2018-01-28T05:30:11.089Z,15.60
2018-01-28T05:32:37.770Z,13.00
2018-01-28T05:35:04.512Z,12.47
2018-01-28T05:37:31.245Z,11.33
2018-01-28T05:39:58.057Z,12.53
2018-01-28T05:42:24.727Z,11.40
2018-01-28T05:44:51.439Z,12.50
2018-01-28T05:47:18.170Z,11.73
2018-01-28T05:49:44.881Z,11.67
2018-01-28T05:52:11.578Z,12.37
2018-01-28T05:54:38.319Z,10.80
2018-01-28T05:57:05.008Z,12.73
2018-01-28T05:59:32.218Z,11.73
2018-01-28T06:01:58.950Z,10.40
2018-01-28T06:04:25.655Z,12.40
2018-01-28T06:06:52.527Z,11.77
2018-01-28T06:09:19.265Z,11.70
2018-01-28T06:11:45.968Z,11.50
2018-01-28T06:14:12.747Z,11.73
2018-01-28T06:16:39.456Z,10.80
2018-01-28T06:19:06.183Z,13.20
2018-01-28T06:21:32.882Z,10.77
2018-01-28T06:23:59.604Z,11.13
2018-01-28T06:26:26.328Z,9.13
2018-01-28T06:28:53.363Z,12.30
2018-01-28T06:31:20.050Z,10.23
2018-01-28T06:33:46.733Z,11.77
2018-01-28T06:36:13.542Z,9.73
2018-01-28T06:38:40.296Z,10.70
2018-01-28T06:41:07.028Z,10.57
2018-01-28T06:43:33.833Z,9.27
2018-01-28T06:46:00.757Z,8.83
2018-01-28T06:48:27.447Z,9.60
2018-01-28T06:50:54.157Z,10.07
2018-01-28T06:53:21.588Z,10.87
2018-01-28T06:55:48.272Z,8.93
2018-01-28T06:58:15.011Z,11.00
2018-01-28T07:00:41.723Z,10.20
2018-01-28T07:03:09.601Z,9.23
2018-01-28T07:05:36.300Z,10.20
2018-01-28T07:08:03.010Z,9.50
2018-01-28T07:10:29.706Z,11.73
2018-01-28T07:12:56.509Z,10.93
2018-01-28T07:15:23.221Z,13.60
2018-01-28T07:17:49.991Z,10.60
2018-01-28T07:20:16.690Z,12.00
2018-01-28T07:22:43.434Z,11.20
2018-01-28T07:25:10.109Z,11.53
2018-01-28T07:27:36.818Z,12.10
2018-01-28T07:30:03.567Z,10.97
2018-01-28T07:32:31.128Z,11.20
2018-01-28T07:34:57.885Z,10.73
2018-01-28T07:37:24.565Z,12.57
2018-01-28T07:39:51.279Z,12.43
2018-01-28T07:42:17.985Z,11.17
2018-01-28T07:44:44.708Z,10.10
2018-01-28T07:47:11.487Z,10.90
2018-01-28T07:49:38.159Z,10.57
2018-01-28T07:52:04.866Z,12.93
2018-01-28T07:54:31.686Z,10.10
2018-01-28T07:56:58.415Z,11.80
2018-01-28T07:59:25.239Z,11.40
2018-01-28T08:01:51.928Z,10.77
2018-01-28T08:04:18.737Z,10.27
2018-01-28T08:06:45.429Z,12.27
2018-01-28T08:09:12.151Z,11.50
2018-01-28T08:11:39.755Z,11.10
2018-01-28T08:14:07.255Z,12.10
2018-01-28T08:16:34.010Z,12.67
2018-01-28T08:19:00.710Z,10.13
2018-01-28T08:21:27.527Z,11.10
2018-01-28T08:23:54.753Z,11.70
2018-01-28T08:26:21.464Z,9.67
2018-01-28T08:28:49.123Z,12.17
2018-01-28T08:31:15.964Z,11.13
2018-01-28T08:33:42.740Z,11.93
2018-01-28T08:36:09.504Z,10.20
2018-01-28T08:38:36.205Z,15.33
2018-01-28T08:41:02.982Z,11.00
2018-01-28T08:43:29.724Z,13.50
2018-01-28T08:45:56.529Z,11.60
2018-01-28T08:48:23.433Z,15.07
2018-01-28T08:50:50.126Z,10.23
2018-01-28T08:53:16.882Z,14.63
2018-01-28T08:55:43.652Z,9.60
2018-01-28T08:58:10.345Z,9.27
2018-01-28T09:00:37.201Z,10.30
2018-01-28T09:03:03.909Z,12.20
2018-01-28T09:05:30.634Z,12.07
2018-01-28T09:07:57.754Z,10.77
2018-01-28T09:10:24.484Z,8.77
2018-01-28T09:12:51.228Z,9.40
2018-01-28T09:15:17.911Z,9.90
2018-01-28T09:17:44.661Z,10.20
2018-01-28T09:20:12.209Z,11.10
2018-01-28T09:22:38.897Z,8.80
2018-01-28T09:25:05.641Z,10.20
2018-01-28T09:27:32.372Z,9.20
2018-01-28T09:29:59.081Z,8.30
2018-01-28T09:32:25.760Z,9.77
2018-01-28T09:34:52.498Z,8.77
2018-01-28T09:37:19.208Z,9.40
2018-01-28T09:39:45.915Z,7.17
2018-01-28T09:42:12.621Z,10.23
2018-01-28T09:44:39.428Z,8.17
2018-01-28T09:47:06.184Z,7.53
2018-01-28T09:49:32.898Z,7.97
2018-01-28T09:51:59.595Z,8.67
2018-01-28T09:54:26.354Z,9.27
2018-01-28T09:56:53.851Z,8.37
2018-01-28T09:59:21.279Z,6.97
2018-01-28T10:01:48.328Z,7.43
2018-01-28T10:04:15.084Z,9.63
2018-01-28T10:06:41.812Z,9.00
2018-01-28T10:09:08.517Z,7.50
2018-01-28T10:11:35.295Z,8.10
2018-01-28T10:14:02.034Z,7.73
2018-01-28T10:16:28.841Z,8.70
2018-01-28T10:18:55.553Z,7.60
2018-01-28T10:21:22.349Z,7.60
2018-01-28T10:23:49.083Z,8.80
2018-01-28T10:26:15.762Z,8.07
2018-01-28T10:28:42.518Z,9.83
2018-01-28T10:31:09.199Z,9.37
2018-01-28T10:33:35.872Z,9.10
2018-01-28T10:36:02.597Z,7.37
2018-01-28T10:38:29.377Z,8.30
2018-01-28T10:40:56.215Z,7.80
2018-01-28T10:43:22.926Z,8.77
2018-01-28T10:45:49.677Z,8.87
2018-01-28T10:48:17.080Z,8.70
2018-01-28T10:50:44.130Z,8.97
2018-01-28T10:53:10.837Z,8.00
2018-01-28T10:55:37.596Z,9.37
2018-01-28T10:58:04.402Z,9.40
2018-01-28T11:00:31.111Z,8.53
2018-01-28T11:02:58.301Z,8.93
2018-01-28T11:05:25.096Z,10.60
2018-01-28T11:07:51.858Z,8.80
2018-01-28T11:10:18.554Z,9.00
2018-01-28T11:12:45.397Z,8.03
2018-01-28T11:15:12.877Z,8.93
2018-01-28T11:17:39.585Z,11.70
2018-01-28T11:20:06.358Z,10.47
2018-01-28T11:22:33.170Z,8.80
2018-01-28T11:24:59.889Z,8.90
2018-01-28T11:27:26.587Z,8.80
2018-01-28T11:29:54.229Z,7.90
2018-01-28T11:32:20.970Z,10.10
2018-01-28T11:34:47.727Z,10.13
2018-01-28T11:37:14.473Z,9.00
2018-01-28T11:39:41.201Z,10.17
2018-01-28T11:42:08.004Z,8.93
2018-01-28T11:44:34.706Z,9.17
2018-01-28T11:47:01.407Z,9.27
2018-01-28T11:49:28.170Z,9.37
2018-01-28T11:51:54.967Z,10.13
2018-01-28T11:54:21.709Z,9.20
2018-01-28T11:56:48.434Z,8.57
2018-01-28T11:59:15.149Z,8.70
2018-01-28T12:01:42.283Z,8.10
2018-01-28T12:04:09.190Z,10.20
2018-01-28T12:06:35.960Z,10.40
2018-01-28T12:09:02.818Z,8.93
2018-01-28T12:11:29.642Z,8.20
2018-01-28T12:13:56.370Z,9.53
2018-01-28T12:16:23.187Z,10.23
2018-01-28T12:18:49.929Z,10.63
2018-01-28T12:21:16.689Z,8.23
2018-01-28T12:23:43.512Z,9.97
2018-01-28T12:26:10.257Z,8.93
2018-01-28T12:28:36.958Z,11.27
2018-01-28T12:31:03.701Z,10.20
2018-01-28T12:33:31.104Z,10.50
2018-01-28T12:35:57.899Z,9.77
2018-01-28T12:38:24.661Z,9.77
2018-01-28T12:40:51.413Z,10.63
2018-01-28T12:43:18.137Z,11.73
2018-01-28T12:45:45.791Z,9.50
2018-01-28T12:48:12.529Z,12.13
2018-01-28T12:50:40.128Z,11.83
2018-01-28T12:53:07.470Z,9.20
2018-01-28T12:55:34.254Z,11.50
2018-01-28T12:58:01.007Z,10.67
2018-01-28T13:00:27.734Z,10.97
2018-01-28T13:02:54.574Z,9.30
2018-01-28T13:05:22.277Z,8.27
2018-01-28T13:07:48.975Z,10.63
2018-01-28T13:10:15.795Z,7.67
2018-01-28T13:12:42.515Z,8.10
2018-01-28T13:15:09.257Z,8.53
2018-01-28T13:17:36.054Z,9.13
2018-01-28T13:20:02.875Z,8.47
2018-01-28T13:22:29.604Z,8.73
2018-01-28T13:24:56.316Z,9.00
2018-01-28T13:27:23.603Z,10.00
2018-01-28T13:29:50.308Z,8.17
2018-01-28T13:32:17.010Z,10.20
2018-01-28T13:34:43.758Z,8.13
2018-01-28T13:37:10.539Z,9.27
2018-01-28T13:39:37.298Z,9.67
2018-01-28T13:42:04.007Z,8.07
2018-01-28T13:44:30.787Z,11.10
2018-01-28T13:46:57.861Z,9.10
2018-01-28T13:49:24.652Z,9.93
2018-01-28T13:51:51.365Z,8.70
2018-01-28T13:54:18.124Z,8.30
2018-01-28T13:56:44.842Z,13.00
2018-01-28T13:59:12.505Z,9.60
2018-01-28T14:01:39.214Z,11.33
2018-01-28T14:04:06.035Z,8.97
2018-01-28T14:06:32.723Z,9.47
2018-01-28T14:08:59.454Z,9.40
2018-01-28T14:11:26.403Z,8.37
2018-01-28T14:13:53.122Z,8.57
2018-01-28T14:16:20.538Z,8.60
2018-01-28T14:18:47.352Z,9.30
2018-01-28T14:21:14.139Z,9.57
2018-01-28T14:23:40.912Z,8.50
2018-01-28T14:26:07.676Z,8.20
2018-01-28T14:28:34.427Z,8.30
2018-01-28T14:31:01.130Z,10.13
2018-01-28T14:33:27.901Z,9.63
2018-01-28T14:35:54.600Z,8.00
2018-01-28T14:38:21.381Z,9.00
2018-01-28T14:40:48.129Z,11.30
2018-01-28T14:43:14.827Z,8.43
2018-01-28T14:45:41.576Z,9.50
2018-01-28T14:48:08.345Z,10.90
2018-01-28T14:50:35.101Z,11.83
2018-01-28T14:53:01.899Z,10.30
2018-01-28T14:55:28.625Z,9.63
2018-01-28T14:57:55.322Z,9.53
2018-01-28T15:00:22.038Z,10.60
2018-01-28T15:02:48.718Z,11.60
2018-01-28T15:05:15.407Z,11.90
2018-01-28T15:07:42.128Z,8.93
2018-01-28T15:10:08.823Z,8.07
2018-01-28T15:12:35.515Z,10.50
2018-01-28T15:15:02.257Z,11.30
2018-01-28T15:17:29.004Z,11.70
2018-01-28T15:19:55.676Z,9.23
2018-01-28T15:22:22.453Z,10.30
2018-01-28T15:24:49.168Z,10.83
2018-01-28T15:27:15.872Z,9.80
2018-01-28T15:29:42.581Z,8.80
2018-01-28T15:32:09.268Z,10.27
2018-01-28T15:34:36.084Z,10.83
2018-01-28T15:37:02.787Z,9.83
2018-01-28T15:39:29.503Z,10.70
2018-01-28T15:41:57.238Z,12.50
2018-01-28T15:44:23.931Z,9.60
2018-01-28T15:46:50.630Z,12.30
2018-01-28T15:49:17.372Z,10.00
2018-01-28T15:51:44.105Z,10.23
2018-01-28T15:54:10.851Z,10.37
2018-01-28T15:56:37.598Z,8.80
2018-01-28T15:59:04.309Z,10.33
2018-01-28T16:01:31.093Z,10.87
2018-01-28T16:03:57.980Z,9.20
2018-01-28T16:06:24.658Z,9.07
2018-01-28T16:08:51.379Z,12.03
2018-01-28T16:11:18.099Z,10.47
2018-01-28T16:13:44.824Z,10.30
2018-01-28T16:16:11.587Z,12.77
2018-01-28T16:18:38.293Z,10.47
2018-01-28T16:21:05.053Z,10.10
2018-01-28T16:23:31.827Z,10.60
2018-01-28T16:25:58.589Z,10.53
2018-01-28T16:28:25.437Z,10.53
2018-01-28T16:30:52.795Z,10.50
2018-01-28T16:33:19.716Z,10.27
2018-01-28T16:35:46.491Z,13.73
2018-01-28T16:38:13.284Z,14.27
2018-01-28T16:40:40.117Z,12.07
2018-01-28T16:43:06.834Z,9.23
2018-01-28T16:45:33.553Z,9.80
2018-01-28T16:48:00.333Z,10.27
2018-01-28T16:50:27.071Z,11.90
2018-01-28T16:52:53.853Z,10.37
2018-01-28T16:55:20.605Z,10.23
2018-01-28T16:57:47.323Z,9.50
2018-01-28T17:00:14.582Z,10.07
2018-01-28T17:02:41.283Z,10.23
2018-01-28T17:05:08.028Z,9.27
2018-01-28T17:07:34.759Z,9.30
2018-01-28T17:10:01.508Z,8.17
2018-01-28T17:12:28.252Z,7.53
2018-01-28T17:14:55.156Z,8.93
2018-01-28T17:17:21.843Z,7.10
2018-01-28T17:19:48.684Z,6.73
2018-01-28T17:22:15.376Z,6.20
2018-01-28T17:24:42.154Z,5.90
2018-01-28T17:27:08.843Z,6.10
2018-01-28T17:29:35.937Z,8.00
2018-01-28T17:32:02.659Z,6.20
2018-01-28T17:34:29.444Z,6.60
2018-01-28T17:36:56.151Z,6.57
2018-01-28T17:39:22.926Z,8.70
2018-01-28T17:41:49.605Z,8.70
2018-01-28T17:44:16.398Z,8.03
2018-01-28T17:46:43.147Z,7.80
2018-01-28T17:49:11.272Z,7.93
2018-01-28T17:51:38.001Z,7.23
2018-01-28T17:54:04.719Z,7.40
2018-01-28T17:56:31.431Z,7.03
2018-01-28T17:58:58.271Z,5.60
2018-01-28T18:01:25.002Z,5.87
2018-01-28T18:03:51.709Z,5.80
2018-01-28T18:06:18.482Z,6.27
2018-01-28T18:08:45.246Z,6.40
2018-01-28T18:11:11.930Z,5.87
2018-01-28T18:13:38.732Z,6.20
2018-01-28T18:16:05.370Z,5.70
2018-01-28T18:18:32.069Z,6.47
2018-01-28T18:20:58.749Z,6.40
2018-01-28T18:23:26.284Z,5.97
2018-01-28T18:25:53.149Z,6.47
2018-01-28T18:28:19.957Z,10.87
2018-01-28T18:30:46.675Z,6.73
2018-01-28T18:33:13.431Z,6.03
2018-01-28T18:35:40.293Z,6.10
2018-01-28T18:38:07.032Z,6.80
2018-01-28T18:40:33.795Z,6.00
2018-01-28T18:43:00.521Z,5.67
2018-01-28T18:45:27.328Z,6.93
2018-01-28T18:47:54.026Z,7.20
2018-01-28T18:50:20.770Z,7.30
2018-01-28T18:52:47.597Z,6.87
2018-01-28T18:55:14.402Z,6.07
2018-01-28T18:57:41.082Z,7.87
2018-01-28T19:00:07.862Z,7.17
2018-01-28T19:02:34.537Z,9.70
2018-01-28T19:05:01.248Z,7.23
2018-01-28T19:07:28.059Z,7.30
2018-01-28T19:09:55.033Z,7.33
2018-01-28T19:12:21.776Z,6.57
2018-01-28T19:14:48.576Z,6.93
2018-01-28T19:17:15.535Z,6.40
2018-01-28T19:19:42.273Z,5.70
2018-01-28T19:22:08.962Z,5.60
2018-01-28T19:24:37.678Z,4.60
2018-01-28T19:27:04.401Z,5.30
2018-01-28T19:29:31.094Z,5.83
2018-01-28T19:31:57.825Z,4.67
2018-01-28T19:34:24.598Z,3.50
2018-01-28T19:36:51.333Z,4.10
2018-01-28T19:39:18.004Z,3.20
2018-01-28T19:41:44.747Z,3.67
2018-01-28T19:44:11.523Z,2.80
2018-01-28T19:46:38.216Z,2.03
2018-01-28T19:49:04.983Z,2.53
2018-01-28T19:51:31.709Z,2.57
2018-01-28T19:53:58.462Z,3.43
2018-01-28T19:56:25.147Z,3.50
2018-01-28T19:58:51.858Z,3.40
2018-01-28T20:01:18.576Z,4.60
2018-01-28T20:03:45.298Z,4.87
2018-01-28T20:06:12.085Z,5.40
2018-01-28T20:08:38.788Z,5.87
2018-01-28T20:11:08.093Z,8.00
2018-01-28T20:13:34.801Z,7.00
2018-01-28T20:16:01.567Z,6.90
2018-01-28T20:18:28.297Z,7.67
2018-01-28T20:20:55.093Z,7.87
2018-01-28T20:23:21.824Z,6.80
2018-01-28T20:25:48.592Z,6.83
2018-01-28T20:28:15.345Z,7.67
2018-01-28T20:30:42.101Z,6.63
2018-01-28T20:33:08.822Z,8.37
2018-01-28T20:35:35.573Z,6.77
2018-01-28T20:38:02.281Z,7.27
2018-01-28T20:40:29.038Z,6.80
2018-01-28T20:42:55.786Z,5.17
2018-01-28T20:45:22.518Z,5.60
2018-01-28T20:47:49.234Z,5.60
2018-01-28T20:50:16.167Z,5.33
2018-01-28T20:52:43.193Z,4.50
2018-01-28T20:55:09.867Z,4.10
2018-01-28T20:57:36.567Z,3.60
2018-01-28T21:00:03.236Z,2.70
2018-01-28T21:02:29.947Z,2.53
2018-01-28T21:04:56.617Z,2.63
2018-01-28T21:07:23.363Z,1.60
2018-01-28T21:09:50.173Z,1.70
2018-01-28T21:12:16.936Z,1.60
2018-01-28T21:14:43.669Z,1.83
2018-01-28T21:17:10.420Z,2.30
2018-01-28T21:19:37.157Z,1.30
2018-01-28T21:22:03.906Z,1.20
2018-01-28T21:24:30.650Z,1.50
2018-01-28T21:26:57.592Z,1.47
2018-01-28T21:29:24.289Z,1.50
2018-01-28T21:31:51.041Z,1.37
2018-01-28T21:34:17.819Z,1.47
2018-01-28T21:36:44.549Z,1.40
2018-01-28T21:39:11.338Z,1.27
2018-01-28T21:41:38.151Z,1.00
2018-01-28T21:44:04.847Z,1.30
2018-01-28T21:46:32.203Z,0.97
2018-01-28T21:48:58.943Z,1.27
2018-01-28T21:51:25.738Z,1.03
2018-01-28T21:53:52.447Z,1.10
2018-01-28T21:56:19.260Z,1.40
2018-01-28T21:58:45.998Z,1.50
2018-01-28T22:01:12.673Z,1.33
2018-01-28T22:03:39.371Z,1.17
2018-01-28T22:06:06.133Z,1.47
2018-01-28T22:08:32.864Z,1.30
2018-01-28T22:10:59.554Z,1.30
2018-01-28T22:13:26.285Z,1.33
2018-01-28T22:15:53.016Z,1.43
2018-01-28T22:18:19.719Z,1.50
2018-01-28T22:20:46.458Z,1.03
2018-01-28T22:23:13.138Z,1.37
2018-01-28T22:25:39.918Z,1.10
2018-01-28T22:28:06.630Z,1.40
2018-01-28T22:30:33.392Z,1.50
2018-01-28T22:33:00.096Z,1.90
2018-01-28T22:35:26.811Z,1.90
2018-01-28T22:37:53.512Z,1.70
2018-01-28T22:40:20.261Z,2.17
2018-01-28T22:42:46.985Z,1.97
2018-01-28T22:45:13.770Z,1.53
2018-01-28T22:47:40.453Z,2.03
2018-01-28T22:50:07.173Z,1.67
2018-01-28T22:52:33.858Z,2.57
2018-01-28T22:55:00.557Z,2.60
2018-01-28T22:57:27.261Z,2.37
2018-01-28T22:59:53.982Z,2.03
2018-01-28T23:02:20.716Z,2.90
2018-01-28T23:04:47.456Z,2.50
2018-01-28T23:07:14.186Z,2.93
2018-01-28T23:09:40.911Z,3.00
2018-01-28T23:12:07.619Z,3.60
2018-01-28T23:14:34.324Z,4.50
2018-01-28T23:17:01.055Z,5.27
2018-01-28T23:19:27.747Z,4.17
2018-01-28T23:21:54.444Z,5.50
2018-01-28T23:24:21.192Z,5.70
2018-01-28T23:26:47.920Z,5.90
2018-01-28T23:29:14.629Z,5.70
2018-01-28T23:31:41.332Z,5.60
2018-01-28T23:34:08.061Z,5.33
2018-01-28T23:36:34.783Z,6.30
2018-01-28T23:39:01.494Z,6.57
2018-01-28T23:41:28.212Z,6.33
2018-01-28T23:43:54.905Z,6.50
2018-01-28T23:46:21.661Z,7.13
2018-01-28T23:48:48.366Z,7.50
2018-01-28T23:51:15.070Z,7.03
2018-01-28T23:53:41.756Z,6.83
2018-01-28T23:56:08.447Z,7.97
2018-01-28T23:58:35.161Z,8.10
